Time;durP1;ratioP1;P1;durP2;ratioP2;P2;SDS_P1;SDS_P2;PMS_P1;PMS_P2;Temp;Humidity;BMP_temperature;BMP_pressure;BME280_temperature;BME280_humidity;BME280_pressure;Samples;Min_cycle;Max_cycle;Signal;HPM_P1;HPM_P2
2022/01/03 00:01:14;;;;;;;7.80;3.63;;;;;;;;;;5067847;28;20192;-60
2022/01/03 00:03:40;;;;;;;5.43;3.17;;;;;;;;;;5066924;28;20239;-61
2022/01/03 00:06:06;;;;;;;8.63;3.63;;;;;;;;;;5067753;28;20177;-61
2022/01/03 00:08:32;;;;;;;9.03;3.43;;;;;;;;;;5066665;28;20180;-60
2022/01/03 00:10:58;;;;;;;9.03;3.43;;;;;;;;;;5066603;28;20712;-61
2022/01/03 00:13:25;;;;;;;8.73;3.40;;;;;;;;;;5066558;28;20200;-60
2022/01/03 00:15:52;;;;;;;8.73;3.70;;;;;;;;;;5046893;28;20644;-61
2022/01/03 00:18:19;;;;;;;9.33;3.90;;;;;;;;;;5067230;28;20660;-60
2022/01/03 00:20:53;;;;;;;10.13;4.73;;;;;;;;;;5069430;28;20208;-61
2022/01/03 00:23:22;;;;;;;10.47;3.93;;;;;;;;;;5068996;28;20176;-61
2022/01/03 00:25:51;;;;;;;12.23;4.20;;;;;;;;;;5069574;28;20674;-61
2022/01/03 00:28:24;;;;;;;9.27;4.63;;;;;;;;;;5069609;28;20180;-61
2022/01/03 00:30:57;;;;;;;11.57;4.97;;;;;;;;;;5068922;28;20631;-61
2022/01/03 00:33:24;;;;;;;10.50;3.93;;;;;;;;;;5069064;28;20177;-61
2022/01/03 00:35:55;;;;;;;11.00;4.57;;;;;;;;;;5069864;28;20202;-61
2022/01/03 00:38:21;;;;;;;15.33;4.67;;;;;;;;;;5067505;28;20199;-61
2022/01/03 00:40:48;;;;;;;10.33;4.70;;;;;;;;;;5067178;28;20184;-60
2022/01/03 00:43:15;;;;;;;13.30;4.23;;;;;;;;;;5048375;28;20306;-61
2022/01/03 00:45:41;;;;;;;9.73;4.17;;;;;;;;;;5064420;28;20265;-61
2022/01/03 00:48:08;;;;;;;8.50;4.63;;;;;;;;;;5066230;28;20184;-61
2022/01/03 00:50:34;;;;;;;14.67;5.43;;;;;;;;;;5066405;28;20176;-61
2022/01/03 00:53:00;;;;;;;13.10;3.83;;;;;;;;;;5052663;28;20677;-61
2022/01/03 00:55:26;;;;;;;14.13;3.93;;;;;;;;;;5100016;28;20534;-61
2022/01/03 00:57:59;;;;;;;11.10;5.20;;;;;;;;;;5087816;28;20203;-61
2022/01/03 01:00:25;;;;;;;12.27;4.87;;;;;;;;;;5086730;28;20180;-62
2022/01/03 01:03:04;;;;;;;8.50;4.20;;;;;;;;;;5086658;28;20233;-61
2022/01/03 01:05:30;;;;;;;13.57;5.00;;;;;;;;;;5085794;28;20175;-61
2022/01/03 01:07:57;;;;;;;14.77;4.40;;;;;;;;;;5087476;28;20195;-62
2022/01/03 01:10:30;;;;;;;17.93;4.73;;;;;;;;;;5088638;28;20495;-62
2022/01/03 01:12:56;;;;;;;11.80;3.93;;;;;;;;;;5087836;28;20188;-61
2022/01/03 01:15:23;;;;;;;7.93;4.00;;;;;;;;;;5084724;28;20172;-61
2022/01/03 01:17:49;;;;;;;13.57;4.50;;;;;;;;;;5086576;28;20207;-61
2022/01/03 01:20:19;;;;;;;15.30;5.10;;;;;;;;;;5088455;28;20251;-62
2022/01/03 01:22:46;;;;;;;9.33;3.97;;;;;;;;;;5082354;28;20188;-61
2022/01/03 01:27:52;;;;;;;11.27;4.20;;;;;;;;;;5083311;28;20188;-62
2022/01/03 01:30:20;;;;;;;10.37;4.50;;;;;;;;;;5069884;28;20635;-61
2022/01/03 01:32:52;;;;;;;14.87;5.40;;;;;;;;;;5087630;28;20203;-62
2022/01/03 01:35:20;;;;;;;13.97;5.27;;;;;;;;;;5086429;28;20183;-60
2022/01/03 01:37:47;;;;;;;10.33;5.00;;;;;;;;;;5087973;28;20736;-61
2022/01/03 01:40:14;;;;;;;15.73;5.10;;;;;;;;;;5086941;28;20186;-61
2022/01/03 01:42:45;;;;;;;12.07;4.57;;;;;;;;;;5086074;28;20268;-61
2022/01/03 01:45:11;;;;;;;12.30;4.43;;;;;;;;;;5073516;28;20179;-61
2022/01/03 01:47:40;;;;;;;17.50;5.53;;;;;;;;;;5062410;28;20189;-61
2022/01/03 01:50:08;;;;;;;11.93;4.53;;;;;;;;;;5069391;28;20620;-61
2022/01/03 01:52:35;;;;;;;16.83;4.43;;;;;;;;;;5085399;28;21007;-60
2022/01/03 01:55:02;;;;;;;12.80;4.70;;;;;;;;;;5067592;28;20615;-61
2022/01/03 01:57:49;;;;;;;7.23;3.87;;;;;;;;;;5064194;28;20200;-61
2022/01/03 02:00:16;;;;;;;9.90;3.97;;;;;;;;;;5051878;28;20651;-59
2022/01/03 02:02:46;;;;;;;13.00;4.47;;;;;;;;;;5079476;28;20588;-61
2022/01/03 02:05:19;;;;;;;13.00;4.07;;;;;;;;;;5066957;28;20172;-61
2022/01/03 02:07:54;;;;;;;12.10;4.80;;;;;;;;;;5070406;28;20230;-61
2022/01/03 02:10:27;;;;;;;10.17;4.43;;;;;;;;;;5066974;28;20199;-60
2022/01/03 02:12:53;;;;;;;16.30;4.40;;;;;;;;;;5069963;28;20172;-60
2022/01/03 02:15:20;;;;;;;11.83;4.00;;;;;;;;;;5082717;28;20694;-60
2022/01/03 02:17:47;;;;;;;9.90;4.10;;;;;;;;;;5068866;28;21639;-61
2022/01/03 02:20:16;;;;;;;13.53;3.50;;;;;;;;;;5077750;28;20176;-60
2022/01/03 02:22:43;;;;;;;15.73;4.00;;;;;;;;;;5066361;28;20344;-61
2022/01/03 02:25:10;;;;;;;9.30;4.13;;;;;;;;;;5065330;28;20212;-61
2022/01/03 02:27:37;;;;;;;9.50;3.73;;;;;;;;;;5066156;28;20246;-61
2022/01/03 02:30:05;;;;;;;8.87;3.27;;;;;;;;;;5080242;28;20210;-61
2022/01/03 02:32:31;;;;;;;7.03;3.50;;;;;;;;;;5066853;28;20267;-61
2022/01/03 02:34:57;;;;;;;12.47;3.63;;;;;;;;;;5071264;28;20237;-60
2022/01/03 02:37:24;;;;;;;9.30;3.80;;;;;;;;;;5064365;28;20208;-61
2022/01/03 02:39:53;;;;;;;14.00;4.40;;;;;;;;;;5067487;28;20172;-60
2022/01/03 02:42:23;;;;;;;13.37;3.90;;;;;;;;;;5046929;28;20654;-61
2022/01/03 02:44:58;;;;;;;12.77;4.10;;;;;;;;;;5069434;28;20205;-61
2022/01/03 02:47:24;;;;;;;10.70;3.77;;;;;;;;;;5058668;28;20228;-61
2022/01/03 02:49:50;;;;;;;8.60;3.57;;;;;;;;;;5071396;28;20647;-61
2022/01/03 02:52:16;;;;;;;10.70;3.60;;;;;;;;;;5067240;28;20187;-60
2022/01/03 02:54:42;;;;;;;12.10;4.20;;;;;;;;;;5045538;28;20220;-60
2022/01/03 02:57:08;;;;;;;10.77;3.80;;;;;;;;;;5065284;28;20249;-59
2022/01/03 02:59:34;;;;;;;12.27;4.03;;;;;;;;;;5058118;28;20180;-59
2022/01/03 03:02:01;;;;;;;15.03;4.47;;;;;;;;;;5066025;28;20527;-60
2022/01/03 03:04:27;;;;;;;12.87;4.90;;;;;;;;;;5047963;28;20632;-60
2022/01/03 03:06:53;;;;;;;10.70;4.10;;;;;;;;;;5066650;28;20195;-60
2022/01/03 03:09:21;;;;;;;11.33;5.70;;;;;;;;;;5066041;28;20203;-59
2022/01/03 03:11:47;;;;;;;16.77;4.90;;;;;;;;;;5066249;28;20188;-60
2022/01/03 03:14:13;;;;;;;15.83;5.17;;;;;;;;;;5028517;28;20201;-59
2022/01/03 03:16:40;;;;;;;12.00;4.70;;;;;;;;;;5061038;28;20767;-59
2022/01/03 03:19:07;;;;;;;10.47;4.97;;;;;;;;;;5066850;28;20184;-59
2022/01/03 03:21:33;;;;;;;14.50;5.20;;;;;;;;;;5066284;28;20222;-59
2022/01/03 03:23:59;;;;;;;12.90;4.70;;;;;;;;;;5065934;28;20176;-59
2022/01/03 03:26:25;;;;;;;11.40;5.63;;;;;;;;;;5048639;28;20209;-59
2022/01/03 03:28:51;;;;;;;13.90;5.40;;;;;;;;;;5066262;28;20184;-60
2022/01/03 03:31:17;;;;;;;10.03;4.40;;;;;;;;;;5066292;28;20261;-59
2022/01/03 03:33:43;;;;;;;9.87;3.67;;;;;;;;;;5065281;28;20192;-59
2022/01/03 03:36:10;;;;;;;9.60;4.40;;;;;;;;;;5067013;28;20204;-60
2022/01/03 03:38:36;;;;;;;11.23;4.23;;;;;;;;;;5068873;28;20214;-59
2022/01/03 03:41:02;;;;;;;13.80;4.47;;;;;;;;;;5070266;28;20172;-59
2022/01/03 03:43:30;;;;;;;5.90;3.57;;;;;;;;;;5052393;28;20985;-59
2022/01/03 03:45:56;;;;;;;14.07;4.40;;;;;;;;;;5059260;28;20590;-60
2022/01/03 03:48:22;;;;;;;11.77;3.80;;;;;;;;;;5069944;28;20176;-59
2022/01/03 03:50:48;;;;;;;10.00;4.10;;;;;;;;;;5069389;28;20207;-59
2022/01/03 03:53:14;;;;;;;6.10;3.30;;;;;;;;;;5069394;28;20353;-59
2022/01/03 03:55:40;;;;;;;9.77;4.47;;;;;;;;;;5081175;28;20169;-59
2022/01/03 03:58:07;;;;;;;10.50;4.27;;;;;;;;;;5070706;28;20691;-59
2022/01/03 04:00:34;;;;;;;10.83;3.57;;;;;;;;;;5069502;28;20340;-59
2022/01/03 04:03:00;;;;;;;10.80;4.50;;;;;;;;;;5064904;28;20556;-59
2022/01/03 04:05:26;;;;;;;9.67;3.93;;;;;;;;;;5068808;28;20184;-59
2022/01/03 04:07:52;;;;;;;8.30;3.90;;;;;;;;;;5068944;28;20982;-60
2022/01/03 04:10:19;;;;;;;6.33;3.20;;;;;;;;;;5078965;28;20664;-59
2022/01/03 04:12:45;;;;;;;9.40;3.30;;;;;;;;;;5069801;28;20543;-60
2022/01/03 04:15:12;;;;;;;7.73;3.23;;;;;;;;;;5076213;28;20190;-59
2022/01/03 04:17:38;;;;;;;9.97;3.30;;;;;;;;;;5055511;28;20562;-59
2022/01/03 04:20:06;;;;;;;12.80;3.17;;;;;;;;;;5050692;28;20539;-59
2022/01/03 04:22:32;;;;;;;8.50;3.50;;;;;;;;;;5062684;28;20544;-59
2022/01/03 04:24:58;;;;;;;10.20;3.47;;;;;;;;;;5067178;28;20230;-59
2022/01/03 04:27:24;;;;;;;9.00;3.27;;;;;;;;;;5070838;28;20176;-59
2022/01/03 04:29:50;;;;;;;7.30;2.57;;;;;;;;;;5071113;28;20180;-59
2022/01/03 04:32:16;;;;;;;10.43;4.63;;;;;;;;;;5067847;28;20181;-59
2022/01/03 04:34:43;;;;;;;13.87;4.43;;;;;;;;;;5073035;28;20188;-59
2022/01/03 04:37:09;;;;;;;11.13;3.50;;;;;;;;;;5069223;28;20202;-59
2022/01/03 04:39:35;;;;;;;7.47;3.03;;;;;;;;;;5074778;28;20263;-59
2022/01/03 04:42:01;;;;;;;13.77;3.43;;;;;;;;;;5073915;28;20181;-59
2022/01/03 04:44:28;;;;;;;9.83;3.40;;;;;;;;;;5065579;28;20205;-59
2022/01/03 04:46:55;;;;;;;8.17;2.77;;;;;;;;;;5065625;28;20181;-59
2022/01/03 04:49:21;;;;;;;9.20;3.20;;;;;;;;;;5064338;28;20179;-59
2022/01/03 04:51:47;;;;;;;7.60;3.23;;;;;;;;;;5053664;28;20189;-60
2022/01/03 04:54:13;;;;;;;9.17;2.97;;;;;;;;;;5075024;28;20253;-59
2022/01/03 04:56:39;;;;;;;6.87;2.60;;;;;;;;;;5102623;28;20218;-59
2022/01/03 04:59:05;;;;;;;11.70;4.30;;;;;;;;;;5088407;28;20175;-59
2022/01/03 05:01:31;;;;;;;16.50;3.23;;;;;;;;;;5063831;28;20176;-59
2022/01/03 05:03:58;;;;;;;6.07;2.70;;;;;;;;;;5088474;28;20684;-59
2022/01/03 05:06:24;;;;;;;9.90;3.07;;;;;;;;;;5083530;28;20657;-60
2022/01/03 05:08:50;;;;;;;10.17;2.87;;;;;;;;;;5086982;28;20180;-60
2022/01/03 05:11:16;;;;;;;10.33;3.10;;;;;;;;;;5092262;28;20207;-59
2022/01/03 05:13:42;;;;;;;6.27;2.93;;;;;;;;;;5070816;28;20646;-59
2022/01/03 05:16:08;;;;;;;10.10;2.63;;;;;;;;;;5091905;28;20685;-59
2022/01/03 05:18:35;;;;;;;6.53;2.50;;;;;;;;;;5084822;28;20587;-59
2022/01/03 05:21:01;;;;;;;9.03;3.33;;;;;;;;;;5072835;28;20639;-59
2022/01/03 05:23:27;;;;;;;9.13;2.97;;;;;;;;;;5085385;28;20649;-60
2022/01/03 05:25:53;;;;;;;9.13;2.57;;;;;;;;;;5086574;28;20175;-60
2022/01/03 05:28:19;;;;;;;12.03;2.90;;;;;;;;;;5087158;28;20187;-59
2022/01/03 05:30:45;;;;;;;8.93;2.87;;;;;;;;;;5078585;28;20627;-59
2022/01/03 05:33:11;;;;;;;7.17;3.23;;;;;;;;;;5088234;28;20635;-59
2022/01/03 05:35:37;;;;;;;9.00;2.90;;;;;;;;;;5085953;28;20171;-59
2022/01/03 05:38:04;;;;;;;7.27;3.17;;;;;;;;;;5089827;28;20191;-60
2022/01/03 05:40:30;;;;;;;11.30;2.87;;;;;;;;;;5088613;28;20186;-60
2022/01/03 05:42:56;;;;;;;9.10;2.20;;;;;;;;;;5085973;28;20175;-59
2022/01/03 05:45:22;;;;;;;17.13;3.17;;;;;;;;;;5086198;28;20176;-59
2022/01/03 05:47:48;;;;;;;8.10;2.53;;;;;;;;;;5087876;28;20215;-60
2022/01/03 05:50:15;;;;;;;11.40;3.23;;;;;;;;;;5088499;28;20174;-59
2022/01/03 05:52:41;;;;;;;13.77;3.90;;;;;;;;;;5088138;28;20286;-59
2022/01/03 05:55:07;;;;;;;8.37;2.83;;;;;;;;;;5067800;28;20177;-59
2022/01/03 05:57:34;;;;;;;9.47;3.10;;;;;;;;;;5047252;28;20789;-59
2022/01/03 06:00:02;;;;;;;13.87;2.97;;;;;;;;;;5076519;28;20237;-59
2022/01/03 06:02:32;;;;;;;7.83;2.90;;;;;;;;;;5065572;28;20181;-59
2022/01/03 06:05:01;;;;;;;7.37;2.80;;;;;;;;;;5069513;28;20181;-60
2022/01/03 06:07:27;;;;;;;7.97;3.33;;;;;;;;;;5063363;28;20189;-59
2022/01/03 06:09:53;;;;;;;7.33;2.80;;;;;;;;;;5066888;28;20364;-59
2022/01/03 06:12:19;;;;;;;10.00;2.90;;;;;;;;;;5050251;28;20191;-59
2022/01/03 06:14:46;;;;;;;6.83;2.47;;;;;;;;;;5084292;28;20184;-59
2022/01/03 06:17:12;;;;;;;10.00;2.73;;;;;;;;;;5065228;28;20505;-59
2022/01/03 06:19:38;;;;;;;5.13;2.23;;;;;;;;;;5064186;28;20246;-59
2022/01/03 06:22:07;;;;;;;11.47;2.90;;;;;;;;;;5066095;28;20181;-59
2022/01/03 06:24:33;;;;;;;11.33;2.53;;;;;;;;;;5066327;28;20189;-59
2022/01/03 06:26:59;;;;;;;4.80;2.90;;;;;;;;;;5067304;28;20180;-59
2022/01/03 06:29:25;;;;;;;5.50;2.30;;;;;;;;;;5063581;28;20176;-59
2022/01/03 06:31:51;;;;;;;13.60;2.70;;;;;;;;;;5065931;28;20274;-60
2022/01/03 06:34:17;;;;;;;5.60;2.23;;;;;;;;;;5064215;28;20447;-60
2022/01/03 06:36:44;;;;;;;12.17;2.60;;;;;;;;;;5066750;28;21089;-59
2022/01/03 06:39:12;;;;;;;5.37;2.60;;;;;;;;;;5071738;28;20176;-59
2022/01/03 06:41:38;;;;;;;6.13;2.40;;;;;;;;;;5072721;28;20176;-60
2022/01/03 06:44:04;;;;;;;17.03;4.20;;;;;;;;;;5071610;28;20183;-60
2022/01/03 06:46:31;;;;;;;12.77;2.83;;;;;;;;;;5066616;28;20651;-60
2022/01/03 06:48:57;;;;;;;9.87;3.23;;;;;;;;;;5073057;28;20176;-60
2022/01/03 06:51:23;;;;;;;8.70;2.97;;;;;;;;;;5079806;28;20184;-60
2022/01/03 06:53:49;;;;;;;5.97;2.07;;;;;;;;;;5072296;28;20212;-60
2022/01/03 06:56:15;;;;;;;11.07;2.60;;;;;;;;;;5064078;28;20246;-59
2022/01/03 06:58:42;;;;;;;10.13;2.53;;;;;;;;;;5066982;28;20222;-59
2022/01/03 07:01:09;;;;;;;7.90;2.87;;;;;;;;;;5063751;28;20207;-60
2022/01/03 07:03:35;;;;;;;9.10;3.13;;;;;;;;;;5062437;28;20184;-59
2022/01/03 07:06:01;;;;;;;6.13;2.67;;;;;;;;;;5062481;28;20715;-59
2022/01/03 07:08:27;;;;;;;9.53;2.50;;;;;;;;;;5087209;28;20228;-59
2022/01/03 07:10:54;;;;;;;5.80;2.23;;;;;;;;;;5066370;28;20271;-59
2022/01/03 07:13:20;;;;;;;6.47;2.57;;;;;;;;;;5073254;28;20226;-59
2022/01/03 07:21:16;;;;;;;11.47;3.77;;;;;;;;;;5070879;28;20188;-59
2022/01/03 07:23:42;;;;;;;7.57;2.13;;;;;;;;;;5069482;28;20180;-59
2022/01/03 07:26:09;;;;;;;5.83;3.47;;;;;;;;;;5070164;28;20167;-58
2022/01/03 07:28:35;;;;;;;8.27;2.93;;;;;;;;;;5065784;28;20191;-59
2022/01/03 07:31:01;;;;;;;8.03;2.53;;;;;;;;;;5069825;28;20183;-59
2022/01/03 07:33:27;;;;;;;4.57;2.60;;;;;;;;;;5069696;28;20226;-59
2022/01/03 07:35:53;;;;;;;7.47;2.37;;;;;;;;;;5068770;28;20219;-59
2022/01/03 07:38:19;;;;;;;7.40;2.53;;;;;;;;;;5068166;28;20702;-59
2022/01/03 07:40:45;;;;;;;6.73;3.07;;;;;;;;;;5066464;28;20180;-59
2022/01/03 07:43:11;;;;;;;5.77;2.10;;;;;;;;;;5068659;28;20655;-59
2022/01/03 07:45:37;;;;;;;12.33;3.10;;;;;;;;;;5066477;28;20190;-60
2022/01/03 07:48:04;;;;;;;10.30;2.97;;;;;;;;;;5068969;28;20581;-59
2022/01/03 07:50:30;;;;;;;11.27;2.53;;;;;;;;;;5069821;28;20186;-60
2022/01/03 07:52:58;;;;;;;13.73;2.90;;;;;;;;;;5072484;28;20724;-59
2022/01/03 07:55:24;;;;;;;8.30;2.77;;;;;;;;;;5088823;28;20156;-60
2022/01/03 07:57:50;;;;;;;12.13;4.00;;;;;;;;;;5081671;28;20447;-60
2022/01/03 08:00:17;;;;;;;10.37;2.87;;;;;;;;;;5056638;28;20183;-60
2022/01/03 08:02:43;;;;;;;7.90;2.27;;;;;;;;;;5073648;28;20236;-60
2022/01/03 08:05:11;;;;;;;6.07;2.57;;;;;;;;;;5066497;28;20189;-59
2022/01/03 08:07:37;;;;;;;7.63;2.63;;;;;;;;;;5057527;28;20203;-60
2022/01/03 08:10:05;;;;;;;9.37;2.40;;;;;;;;;;5056431;28;20242;-60
2022/01/03 08:12:31;;;;;;;8.70;2.50;;;;;;;;;;5060104;28;20574;-60
2022/01/03 08:14:57;;;;;;;7.23;2.40;;;;;;;;;;5072946;28;20195;-59
2022/01/03 08:17:23;;;;;;;7.33;3.27;;;;;;;;;;5061034;28;20207;-60
2022/01/03 08:19:49;;;;;;;8.27;2.50;;;;;;;;;;5072982;28;20179;-59
2022/01/03 08:22:16;;;;;;;6.83;2.73;;;;;;;;;;5068952;28;20188;-59
2022/01/03 08:24:42;;;;;;;10.90;3.03;;;;;;;;;;5074011;28;20175;-59
2022/01/03 08:27:08;;;;;;;9.20;2.87;;;;;;;;;;5077271;28;20173;-60
2022/01/03 08:29:34;;;;;;;8.53;2.67;;;;;;;;;;5073278;28;20181;-59
2022/01/03 08:32:00;;;;;;;6.43;2.93;;;;;;;;;;5066872;28;20192;-60
2022/01/03 08:34:26;;;;;;;11.03;3.03;;;;;;;;;;5069180;28;20256;-59
2022/01/03 08:36:52;;;;;;;10.03;3.27;;;;;;;;;;5068985;28;20212;-61
2022/01/03 08:39:18;;;;;;;11.03;2.93;;;;;;;;;;5049542;28;20268;-60
2022/01/03 08:41:47;;;;;;;9.90;3.20;;;;;;;;;;5063968;28;20259;-60
2022/01/03 08:44:14;;;;;;;7.63;2.80;;;;;;;;;;5067649;28;20180;-59
2022/01/03 08:46:40;;;;;;;7.83;2.53;;;;;;;;;;5071209;28;20237;-60
2022/01/03 08:49:06;;;;;;;10.57;2.87;;;;;;;;;;5068435;28;20196;-60
2022/01/03 08:51:32;;;;;;;5.93;3.20;;;;;;;;;;5071996;28;20533;-60
2022/01/03 08:53:59;;;;;;;10.70;3.87;;;;;;;;;;5076578;28;20215;-59
2022/01/03 08:56:25;;;;;;;9.50;2.57;;;;;;;;;;5077472;28;20208;-59
2022/01/03 08:58:51;;;;;;;6.80;2.83;;;;;;;;;;5083523;28;20176;-59
2022/01/03 09:01:17;;;;;;;9.60;2.50;;;;;;;;;;5082127;28;20179;-60
2022/01/03 09:03:44;;;;;;;8.97;3.57;;;;;;;;;;5086267;28;20172;-60
2022/01/03 09:06:10;;;;;;;11.07;2.73;;;;;;;;;;5088671;28;20211;-60
2022/01/03 09:08:36;;;;;;;6.50;3.27;;;;;;;;;;5078736;28;20228;-58
2022/01/03 09:11:02;;;;;;;8.13;3.00;;;;;;;;;;5092991;28;20531;-59
2022/01/03 09:13:28;;;;;;;8.20;3.50;;;;;;;;;;5085022;28;20521;-58
2022/01/03 09:15:54;;;;;;;13.27;3.20;;;;;;;;;;5087522;28;20221;-57
2022/01/03 09:18:26;;;;;;;8.30;3.23;;;;;;;;;;5086714;28;20203;-57
2022/01/03 09:20:52;;;;;;;12.70;4.17;;;;;;;;;;5081393;28;20181;-56
2022/01/03 09:23:25;;;;;;;10.93;3.20;;;;;;;;;;5083997;28;20654;-60
2022/01/03 09:28:52;;;;;;;15.77;3.37;;;;;;;;;;5091536;28;20601;-61
2022/01/03 09:31:29;;;;;;;20.47;3.63;;;;;;;;;;5092156;28;20171;-60
2022/01/03 09:33:56;;;;;;;7.33;2.87;;;;;;;;;;5069428;28;20178;-60
2022/01/03 09:36:22;;;;;;;11.80;3.17;;;;;;;;;;5086779;28;20377;-60
2022/01/03 09:38:49;;;;;;;7.87;3.47;;;;;;;;;;5069933;28;20183;-60
2022/01/03 09:41:18;;;;;;;11.53;3.03;;;;;;;;;;5091574;28;20172;-60
2022/01/03 09:43:48;;;;;;;8.13;2.53;;;;;;;;;;5091548;28;20201;-60
2022/01/03 09:46:19;;;;;;;5.80;2.93;;;;;;;;;;5090017;28;20179;-60
2022/01/03 09:48:51;;;;;;;8.27;3.43;;;;;;;;;;5092334;28;20653;-61
2022/01/03 09:51:17;;;;;;;10.70;3.70;;;;;;;;;;5087666;28;20249;-61
2022/01/03 09:53:43;;;;;;;16.70;3.67;;;;;;;;;;5083879;28;20284;-58
2022/01/03 09:56:09;;;;;;;8.03;3.03;;;;;;;;;;5079948;28;20240;-59
2022/01/03 09:58:36;;;;;;;7.70;2.90;;;;;;;;;;5085008;28;20210;-61
2022/01/03 10:01:02;;;;;;;7.60;3.07;;;;;;;;;;5069931;28;20184;-61
2022/01/03 10:03:28;;;;;;;8.33;3.23;;;;;;;;;;5050805;28;20176;-61
2022/01/03 10:05:55;;;;;;;11.43;3.10;;;;;;;;;;5070531;28;20638;-61
2022/01/03 10:08:21;;;;;;;11.73;3.53;;;;;;;;;;5056267;28;20180;-61
2022/01/03 10:10:50;;;;;;;8.33;3.40;;;;;;;;;;5055829;28;20180;-61
2022/01/03 10:13:16;;;;;;;8.43;2.83;;;;;;;;;;5068467;28;20648;-61
2022/01/03 10:15:42;;;;;;;6.57;3.10;;;;;;;;;;5054143;28;20184;-61
2022/01/03 10:18:16;;;;;;;8.13;3.80;;;;;;;;;;5074330;28;20203;-61
2022/01/03 10:20:42;;;;;;;13.70;3.20;;;;;;;;;;5065351;28;20185;-61
2022/01/03 10:23:14;;;;;;;9.57;3.23;;;;;;;;;;5043975;28;20204;-61
2022/01/03 10:25:40;;;;;;;13.40;3.20;;;;;;;;;;5068830;28;20164;-61
2022/01/03 10:28:06;;;;;;;23.10;3.70;;;;;;;;;;5059846;28;20188;-61
2022/01/03 10:30:40;;;;;;;9.03;2.83;;;;;;;;;;5057562;28;20195;-60
2022/01/03 10:33:11;;;;;;;6.10;3.10;;;;;;;;;;5058629;28;20188;-61
2022/01/03 10:35:39;;;;;;;5.17;2.03;;;;;;;;;;5045227;28;20184;-61
2022/01/03 10:38:05;;;;;;;8.67;2.60;;;;;;;;;;5063694;28;20196;-61
2022/01/03 10:40:31;;;;;;;8.23;2.33;;;;;;;;;;5065827;28;20188;-61
2022/01/03 10:42:58;;;;;;;7.33;2.70;;;;;;;;;;5067141;28;20178;-61
2022/01/03 10:45:31;;;;;;;17.13;3.47;;;;;;;;;;5067005;28;20176;-60
2022/01/03 10:47:57;;;;;;;7.43;2.50;;;;;;;;;;5068257;28;20267;-61
2022/01/03 10:50:24;;;;;;;9.13;3.73;;;;;;;;;;5070061;28;20195;-61
2022/01/03 10:52:50;;;;;;;9.73;2.77;;;;;;;;;;5070860;28;20765;-61
2022/01/03 10:55:33;;;;;;;4.57;2.33;;;;;;;;;;5071879;28;20187;-61
2022/01/03 10:58:09;;;;;;;7.20;2.63;;;;;;;;;;5061301;28;20215;-61
2022/01/03 11:00:39;;;;;;;5.93;2.40;;;;;;;;;;5056975;28;20172;-62
2022/01/03 11:03:17;;;;;;;10.03;3.40;;;;;;;;;;5071748;28;20635;-61
2022/01/03 11:05:48;;;;;;;9.10;2.73;;;;;;;;;;5070791;28;20666;-61
2022/01/03 11:10:59;;;;;;;7.60;2.70;;;;;;;;;;5069854;28;20265;-61
2022/01/03 11:13:26;;;;;;;13.53;3.00;;;;;;;;;;5076196;28;20220;-61
2022/01/03 11:15:56;;;;;;;10.30;3.10;;;;;;;;;;5056809;28;20639;-61
2022/01/03 11:18:33;;;;;;;11.53;3.10;;;;;;;;;;5075180;28;20200;-62
2022/01/03 11:21:18;;;;;;;8.57;2.73;;;;;;;;;;5058061;28;20184;-61
2022/01/03 11:23:44;;;;;;;11.07;3.53;;;;;;;;;;5074359;28;20209;-61
2022/01/03 11:26:12;;;;;;;9.30;3.37;;;;;;;;;;5089271;28;20251;-61
2022/01/03 11:28:39;;;;;;;9.67;3.03;;;;;;;;;;5073526;28;20227;-61
2022/01/03 11:31:06;;;;;;;6.80;3.13;;;;;;;;;;5067466;28;20639;-61
2022/01/03 11:33:34;;;;;;;7.07;2.63;;;;;;;;;;5063473;28;20551;-61
2022/01/03 11:36:01;;;;;;;10.87;3.20;;;;;;;;;;5068137;28;20886;-61
2022/01/03 11:38:30;;;;;;;8.27;2.50;;;;;;;;;;5068822;28;20196;-61
2022/01/03 11:40:56;;;;;;;9.10;3.13;;;;;;;;;;5071521;28;20180;-61
2022/01/03 11:43:22;;;;;;;9.57;3.50;;;;;;;;;;5074603;28;20176;-61
2022/01/03 11:45:49;;;;;;;8.87;2.67;;;;;;;;;;5070221;28;20677;-61
2022/01/03 11:48:15;;;;;;;7.40;2.53;;;;;;;;;;5067182;28;20266;-61
2022/01/03 11:50:41;;;;;;;10.80;2.70;;;;;;;;;;5074948;28;20631;-61
2022/01/03 11:53:08;;;;;;;7.23;2.90;;;;;;;;;;5071894;28;20231;-62
2022/01/03 11:55:35;;;;;;;6.90;2.53;;;;;;;;;;5072006;28;20180;-61
2022/01/03 11:58:26;;;;;;;9.33;3.40;;;;;;;;;;5052854;28;20253;-61
2022/01/03 12:03:47;;;;;;;7.23;2.80;;;;;;;;;;5070384;28;20227;-60
2022/01/03 12:06:22;;;;;;;7.90;3.60;;;;;;;;;;5072781;28;20556;-60
2022/01/03 12:08:55;;;;;;;5.50;2.80;;;;;;;;;;5062664;28;20868;-61
2022/01/03 12:11:22;;;;;;;8.23;3.00;;;;;;;;;;5069130;28;20183;-61
2022/01/03 12:13:51;;;;;;;12.57;3.17;;;;;;;;;;5069943;28;20181;-61
2022/01/03 12:16:18;;;;;;;9.20;2.67;;;;;;;;;;5077171;28;20185;-61
2022/01/03 12:19:00;;;;;;;5.70;2.60;;;;;;;;;;5067098;28;20232;-60
2022/01/03 12:21:45;;;;;;;10.67;2.93;;;;;;;;;;5074677;28;20182;-60
2022/01/03 12:24:29;;;;;;;12.00;4.00;;;;;;;;;;5067980;28;20183;-61
2022/01/03 12:27:11;;;;;;;7.03;2.87;;;;;;;;;;5072079;28;20980;-60
2022/01/03 12:29:55;;;;;;;10.97;2.70;;;;;;;;;;5058125;28;20191;-60
2022/01/03 12:32:25;;;;;;;9.17;2.90;;;;;;;;;;5066381;28;20766;-61
2022/01/03 12:35:10;;;;;;;9.17;2.70;;;;;;;;;;5064248;28;20179;-61
2022/01/03 12:37:37;;;;;;;7.80;2.97;;;;;;;;;;5068308;28;20278;-61
2022/01/03 12:40:03;;;;;;;8.03;2.53;;;;;;;;;;5087477;28;20183;-61
2022/01/03 12:42:53;;;;;;;4.47;2.50;;;;;;;;;;5069055;28;20559;-60
2022/01/03 12:45:19;;;;;;;8.20;3.33;;;;;;;;;;5068026;28;20844;-61
2022/01/03 12:47:45;;;;;;;5.27;2.80;;;;;;;;;;5048461;28;20180;-60
2022/01/03 12:50:22;;;;;;;7.77;3.13;;;;;;;;;;5049638;28;20192;-60
2022/01/03 12:52:48;;;;;;;8.53;3.27;;;;;;;;;;5071788;28;20208;-60
2022/01/03 12:55:50;;;;;;;7.13;3.00;;;;;;;;;;5071300;28;20192;-60
2022/01/03 12:58:16;;;;;;;3.50;2.43;;;;;;;;;;4982948;28;20217;-61
2022/01/03 13:00:46;;;;;;;8.23;3.27;;;;;;;;;;5048392;28;20238;-60
2022/01/03 13:03:27;;;;;;;7.13;4.77;;;;;;;;;;5059274;28;20217;-61
2022/01/03 13:06:13;;;;;;;9.53;3.33;;;;;;;;;;5081453;28;20175;-60
2022/01/03 13:08:43;;;;;;;7.80;3.50;;;;;;;;;;5061502;28;20189;-60
2022/01/03 13:11:10;;;;;;;6.53;2.60;;;;;;;;;;5066904;28;20192;-57
2022/01/03 13:13:37;;;;;;;8.93;2.70;;;;;;;;;;5051644;28;20597;-61
2022/01/03 13:16:21;;;;;;;6.00;2.43;;;;;;;;;;5068600;28;20188;-61
2022/01/03 13:18:47;;;;;;;6.77;2.53;;;;;;;;;;5061461;28;20698;-60
2022/01/03 13:21:15;;;;;;;8.70;3.50;;;;;;;;;;5068103;28;20176;-60
2022/01/03 13:24:00;;;;;;;7.03;3.13;;;;;;;;;;5064923;28;20622;-61
2022/01/03 13:26:27;;;;;;;5.43;2.27;;;;;;;;;;5068479;28;20181;-61
2022/01/03 13:28:53;;;;;;;8.67;2.53;;;;;;;;;;5067072;28;20518;-61
2022/01/03 13:31:20;;;;;;;7.20;2.90;;;;;;;;;;5066377;28;20192;-61
2022/01/03 13:33:53;;;;;;;5.63;2.63;;;;;;;;;;5068631;28;20643;-61
2022/01/03 13:36:19;;;;;;;5.23;2.50;;;;;;;;;;5073651;28;20176;-61
2022/01/03 13:38:45;;;;;;;6.90;2.30;;;;;;;;;;5065737;28;20212;-61
2022/01/03 13:41:13;;;;;;;8.23;2.60;;;;;;;;;;5049669;28;20211;-61
2022/01/03 13:43:43;;;;;;;4.47;2.00;;;;;;;;;;5066362;28;20267;-61
2022/01/03 13:51:20;;;;;;;6.83;2.27;;;;;;;;;;5066403;28;20176;-61
2022/01/03 13:53:50;;;;;;;6.50;2.30;;;;;;;;;;5073104;28;20306;-60
2022/01/03 13:56:16;;;;;;;8.27;2.90;;;;;;;;;;5071752;28;20196;-61
2022/01/03 13:58:44;;;;;;;4.37;2.30;;;;;;;;;;5084254;28;20194;-61
2022/01/03 14:01:10;;;;;;;4.33;2.87;;;;;;;;;;5068004;28;20635;-60
2022/01/03 14:03:39;;;;;;;5.70;2.73;;;;;;;;;;5067039;28;20184;-60
2022/01/03 14:06:22;;;;;;;7.40;2.13;;;;;;;;;;5066356;28;20180;-60
2022/01/03 14:08:53;;;;;;;8.50;2.17;;;;;;;;;;5085655;28;20179;-60
2022/01/03 14:11:20;;;;;;;8.03;2.83;;;;;;;;;;5085240;28;20674;-61
2022/01/03 14:13:47;;;;;;;8.70;2.93;;;;;;;;;;5069854;28;20195;-61
2022/01/03 14:16:14;;;;;;;6.40;2.53;;;;;;;;;;5070510;28;20547;-61
2022/01/03 14:18:41;;;;;;;5.97;2.80;;;;;;;;;;5085883;28;20655;-61
2022/01/03 14:21:18;;;;;;;4.90;2.60;;;;;;;;;;5088734;28;20185;-61
2022/01/03 14:23:48;;;;;;;6.07;2.60;;;;;;;;;;5085860;28;20183;-61
2022/01/03 14:26:16;;;;;;;8.67;2.40;;;;;;;;;;5083909;28;20187;-60
2022/01/03 14:28:42;;;;;;;6.33;3.17;;;;;;;;;;5084959;28;20191;-61
2022/01/03 14:31:11;;;;;;;9.40;2.57;;;;;;;;;;5067741;28;20232;-61
2022/01/03 14:33:38;;;;;;;4.53;2.30;;;;;;;;;;5078637;28;20188;-61
2022/01/03 14:36:17;;;;;;;9.97;3.43;;;;;;;;;;5089370;28;20207;-60
2022/01/03 14:38:46;;;;;;;7.67;2.43;;;;;;;;;;5083274;28;20598;-60
2022/01/03 14:41:22;;;;;;;6.63;2.17;;;;;;;;;;5089196;28;20194;-60
2022/01/03 14:43:56;;;;;;;5.37;2.33;;;;;;;;;;5080588;28;20533;-60
2022/01/03 14:46:33;;;;;;;4.73;1.90;;;;;;;;;;5081730;28;20180;-61
2022/01/03 14:49:00;;;;;;;4.30;2.33;;;;;;;;;;5084524;28;20634;-59
2022/01/03 14:51:33;;;;;;;6.67;2.30;;;;;;;;;;5066868;28;20211;-61
2022/01/03 14:54:15;;;;;;;3.93;1.97;;;;;;;;;;5074453;28;20216;-60
2022/01/03 14:56:42;;;;;;;4.60;2.23;;;;;;;;;;5063833;28;20667;-61
2022/01/03 14:59:09;;;;;;;5.03;2.40;;;;;;;;;;5067209;28;20176;-60
2022/01/03 15:01:35;;;;;;;3.87;1.97;;;;;;;;;;5071333;28;20215;-61
2022/01/03 15:04:01;;;;;;;4.03;1.77;;;;;;;;;;5079782;28;20630;-61
2022/01/03 15:06:27;;;;;;;3.10;2.00;;;;;;;;;;5068972;28;20547;-60